sensor_id;sensor_type;location;lat;lon;timestamp;temperature;humidity
46029;DHT22;31763;48.180;7.904;2023-05-16T08:04:12;9.30;99.90
46029;DHT22;31763;48.180;7.904;2023-05-16T08:06:39;9.80;99.90
46029;DHT22;31763;48.180;7.904;2023-05-16T08:09:08;9.50;99.90
46029;DHT22;31763;48.180;7.904;2023-05-16T08:14:03;9.60;99.90
46029;DHT22;31763;48.180;7.904;2023-05-16T08:16:29;9.80;99.90
46029;DHT22;31763;48.180;7.904;2023-05-16T08:18:57;9.80;99.90
46029;DHT22;31763;48.180;7.904;2023-05-16T08:21:24;9.80;99.90
46029;DHT22;31763;48.180;7.904;2023-05-16T08:23:54;8.30;99.90
46029;DHT22;31763;48.180;7.904;2023-05-16T08:26:21;9.70;99.90
46029;DHT22;31763;48.180;7.904;2023-05-16T08:28:48;9.70;99.90
46029;DHT22;31763;48.180;7.904;2023-05-16T10:07:04;10.00;99.90
46029;DHT22;31763;48.180;7.904;2023-05-16T10:09:32;10.10;99.90
46029;DHT22;31763;48.180;7.904;2023-05-16T10:12:01;10.30;99.90
46029;DHT22;31763;48.180;7.904;2023-05-16T10:14:36;10.30;99.90
46029;DHT22;31763;48.180;7.904;2023-05-16T10:17:06;10.20;99.90
46029;DHT22;31763;48.180;7.904;2023-05-16T10:19:37;10.20;99.90
46029;DHT22;31763;48.180;7.904;2023-05-16T10:22:06;10.20;99.90
46029;DHT22;31763;48.180;7.904;2023-05-16T10:24:50;10.10;99.90
46029;DHT22;31763;48.180;7.904;2023-05-16T10:27:26;10.00;99.90
46029;DHT22;31763;48.180;7.904;2023-05-16T10:29:54;10.10;99.90
46029;DHT22;31763;48.180;7.904;2023-05-16T10:32:23;10.10;99.90
46029;DHT22;31763;48.180;7.904;2023-05-16T10:34:51;10.00;99.90
46029;DHT22;31763;48.180;7.904;2023-05-16T10:37:18;9.90;99.90
46029;DHT22;31763;48.180;7.904;2023-05-16T10:39:45;9.90;99.90
46029;DHT22;31763;48.180;7.904;2023-05-16T10:42:14;9.90;99.90
46029;DHT22;31763;48.180;7.904;2023-05-16T10:44:43;9.80;99.90
46029;DHT22;31763;48.180;7.904;2023-05-16T10:47:23;9.80;99.90
46029;DHT22;31763;48.180;7.904;2023-05-16T10:49:50;9.70;99.90
46029;DHT22;31763;48.180;7.904;2023-05-16T10:52:17;10.00;99.90
46029;DHT22;31763;48.180;7.904;2023-05-16T10:54:50;10.00;99.90
46029;DHT22;31763;48.180;7.904;2023-05-16T10:57:19;10.00;99.90
46029;DHT22;31763;48.180;7.904;2023-05-16T10:59:50;9.90;99.90
46029;DHT22;31763;48.180;7.904;2023-05-16T11:04:56;10.00;99.90
46029;DHT22;31763;48.180;7.904;2023-05-16T11:07:34;10.00;99.90
46029;DHT22;31763;48.180;7.904;2023-05-16T11:10:15;10.00;99.90
46029;DHT22;31763;48.180;7.904;2023-05-16T11:12:48;10.00;99.90
46029;DHT22;31763;48.180;7.904;2023-05-16T11:15:18;10.00;99.90
46029;DHT22;31763;48.180;7.904;2023-05-16T11:18:07;10.00;99.90
46029;DHT22;31763;48.180;7.904;2023-05-16T11:20:41;10.00;99.90
46029;DHT22;31763;48.180;7.904;2023-05-16T11:25:45;9.90;99.90
46029;DHT22;31763;48.180;7.904;2023-05-16T11:28:18;10.00;99.90
46029;DHT22;31763;48.180;7.904;2023-05-16T11:30:53;10.10;99.90
46029;DHT22;31763;48.180;7.904;2023-05-16T11:33:23;10.00;99.90
46029;DHT22;31763;48.180;7.904;2023-05-16T11:36:20;9.90;99.90
46029;DHT22;31763;48.180;7.904;2023-05-16T11:38:50;9.80;99.90
46029;DHT22;31763;48.180;7.904;2023-05-16T11:41:18;9.80;99.90
46029;DHT22;31763;48.180;7.904;2023-05-16T11:43:46;9.80;99.90
46029;DHT22;31763;48.180;7.904;2023-05-16T11:46:14;9.70;99.90
46029;DHT22;31763;48.180;7.904;2023-05-16T11:48:42;9.60;99.90
46029;DHT22;31763;48.180;7.904;2023-05-16T11:51:11;9.60;99.90
46029;DHT22;31763;48.180;7.904;2023-05-16T11:53:40;9.60;99.90
46029;DHT22;31763;48.180;7.904;2023-05-16T11:56:07;9.60;99.90
46029;DHT22;31763;48.180;7.904;2023-05-16T11:58:34;9.70;99.90
46029;DHT22;31763;48.180;7.904;2023-05-16T12:01:03;9.60;99.90
46029;DHT22;31763;48.180;7.904;2023-05-16T12:03:33;9.60;99.90
46029;DHT22;31763;48.180;7.904;2023-05-16T12:06:01;9.60;99.90
46029;DHT22;31763;48.180;7.904;2023-05-16T12:08:28;9.50;99.90
46029;DHT22;31763;48.180;7.904;2023-05-16T12:10:56;9.40;99.90
46029;DHT22;31763;48.180;7.904;2023-05-16T12:13:23;9.40;99.90
46029;DHT22;31763;48.180;7.904;2023-05-16T12:15:51;9.40;99.90
46029;DHT22;31763;48.180;7.904;2023-05-16T12:18:22;9.40;99.90
46029;DHT22;31763;48.180;7.904;2023-05-16T12:20:51;9.40;99.90
46029;DHT22;31763;48.180;7.904;2023-05-16T12:23:19;9.40;99.90
46029;DHT22;31763;48.180;7.904;2023-05-16T12:25:46;9.30;99.90
46029;DHT22;31763;48.180;7.904;2023-05-16T12:28:15;9.30;99.90
46029;DHT22;31763;48.180;7.904;2023-05-16T12:30:43;9.30;99.90
46029;DHT22;31763;48.180;7.904;2023-05-16T12:33:12;9.30;99.90
46029;DHT22;31763;48.180;7.904;2023-05-16T12:35:42;9.30;99.90
46029;DHT22;31763;48.180;7.904;2023-05-16T12:38:12;9.30;99.90
46029;DHT22;31763;48.180;7.904;2023-05-16T12:40:41;9.30;99.90
46029;DHT22;31763;48.180;7.904;2023-05-16T12:43:21;9.40;99.90
46029;DHT22;31763;48.180;7.904;2023-05-16T12:45:53;9.40;99.90
46029;DHT22;31763;48.180;7.904;2023-05-16T12:48:22;9.50;99.90
46029;DHT22;31763;48.180;7.904;2023-05-16T12:50:50;9.50;99.90
46029;DHT22;31763;48.180;7.904;2023-05-16T12:53:17;9.40;99.90
46029;DHT22;31763;48.180;7.904;2023-05-16T12:55:45;9.50;99.90
46029;DHT22;31763;48.180;7.904;2023-05-16T12:58:12;9.40;99.90
46029;DHT22;31763;48.180;7.904;2023-05-16T13:00:39;9.40;99.90
46029;DHT22;31763;48.180;7.904;2023-05-16T13:03:06;9.40;99.90
46029;DHT22;31763;48.180;7.904;2023-05-16T13:05:34;9.40;99.90
46029;DHT22;31763;48.180;7.904;2023-05-16T13:08:02;9.40;99.90
46029;DHT22;31763;48.180;7.904;2023-05-16T13:10:29;9.40;99.90
46029;DHT22;31763;48.180;7.904;2023-05-16T13:12:56;9.40;99.90
46029;DHT22;31763;48.180;7.904;2023-05-16T13:15:26;9.30;99.90
46029;DHT22;31763;48.180;7.904;2023-05-16T13:17:53;9.30;99.90
46029;DHT22;31763;48.180;7.904;2023-05-16T13:20:20;9.30;99.90
46029;DHT22;31763;48.180;7.904;2023-05-16T13:22:47;9.30;99.90
46029;DHT22;31763;48.180;7.904;2023-05-16T13:25:14;9.30;99.90
46029;DHT22;31763;48.180;7.904;2023-05-16T13:27:41;9.30;99.90
46029;DHT22;31763;48.180;7.904;2023-05-16T13:30:08;9.10;99.90
46029;DHT22;31763;48.180;7.904;2023-05-16T13:32:35;9.10;99.90
46029;DHT22;31763;48.180;7.904;2023-05-16T13:35:02;9.10;99.90
46029;DHT22;31763;48.180;7.904;2023-05-16T13:37:29;9.10;99.90
46029;DHT22;31763;48.180;7.904;2023-05-16T13:39:57;9.10;99.90
46029;DHT22;31763;48.180;7.904;2023-05-16T13:42:24;9.10;99.90
46029;DHT22;31763;48.180;7.904;2023-05-16T13:44:51;9.10;99.90
46029;DHT22;31763;48.180;7.904;2023-05-16T13:47:18;9.00;99.90
46029;DHT22;31763;48.180;7.904;2023-05-16T13:49:45;9.10;99.90
46029;DHT22;31763;48.180;7.904;2023-05-16T13:52:13;9.20;99.90
46029;DHT22;31763;48.180;7.904;2023-05-16T13:54:40;9.30;99.90
46029;DHT22;31763;48.180;7.904;2023-05-16T13:57:07;9.30;99.90
46029;DHT22;31763;48.180;7.904;2023-05-16T13:59:34;9.30;99.90
46029;DHT22;31763;48.180;7.904;2023-05-16T14:02:21;9.40;99.90
46029;DHT22;31763;48.180;7.904;2023-05-16T14:04:48;9.40;99.90
46029;DHT22;31763;48.180;7.904;2023-05-16T14:07:15;9.40;99.90
46029;DHT22;31763;48.180;7.904;2023-05-16T14:09:42;9.50;99.90
46029;DHT22;31763;48.180;7.904;2023-05-16T14:12:10;9.50;99.90
46029;DHT22;31763;48.180;7.904;2023-05-16T14:14:37;9.50;99.90
46029;DHT22;31763;48.180;7.904;2023-05-16T14:17:04;9.40;99.90
46029;DHT22;31763;48.180;7.904;2023-05-16T14:19:31;9.40;99.90
46029;DHT22;31763;48.180;7.904;2023-05-16T14:21:59;9.50;99.90
46029;DHT22;31763;48.180;7.904;2023-05-16T14:24:26;9.60;99.90
46029;DHT22;31763;48.180;7.904;2023-05-16T14:26:53;9.50;99.90
46029;DHT22;31763;48.180;7.904;2023-05-16T14:29:24;9.40;99.90
46029;DHT22;31763;48.180;7.904;2023-05-16T14:31:51;9.50;99.90
46029;DHT22;31763;48.180;7.904;2023-05-16T14:34:19;9.50;99.90
46029;DHT22;31763;48.180;7.904;2023-05-16T14:36:46;9.50;99.90
46029;DHT22;31763;48.180;7.904;2023-05-16T14:39:13;9.40;99.90
46029;DHT22;31763;48.180;7.904;2023-05-16T14:41:41;9.40;99.90
46029;DHT22;31763;48.180;7.904;2023-05-16T14:44:07;9.40;99.90
46029;DHT22;31763;48.180;7.904;2023-05-16T14:46:35;9.30;99.90
46029;DHT22;31763;48.180;7.904;2023-05-16T14:49:02;9.30;99.90
46029;DHT22;31763;48.180;7.904;2023-05-16T14:51:29;9.20;99.90
46029;DHT22;31763;48.180;7.904;2023-05-16T14:53:57;9.20;99.90
46029;DHT22;31763;48.180;7.904;2023-05-16T14:56:24;9.10;99.90
46029;DHT22;31763;48.180;7.904;2023-05-16T14:58:52;9.10;99.90
46029;DHT22;31763;48.180;7.904;2023-05-16T15:01:19;9.10;99.90
46029;DHT22;31763;48.180;7.904;2023-05-16T15:03:47;9.10;99.90
46029;DHT22;31763;48.180;7.904;2023-05-16T15:06:22;9.20;99.90
46029;DHT22;31763;48.180;7.904;2023-05-16T15:08:49;9.10;99.90
46029;DHT22;31763;48.180;7.904;2023-05-16T15:11:16;9.10;99.90
46029;DHT22;31763;48.180;7.904;2023-05-16T15:13:43;9.10;99.90
46029;DHT22;31763;48.180;7.904;2023-05-16T15:16:10;9.20;99.90
46029;DHT22;31763;48.180;7.904;2023-05-16T15:18:37;9.00;99.90
46029;DHT22;31763;48.180;7.904;2023-05-16T15:21:04;9.00;99.90
46029;DHT22;31763;48.180;7.904;2023-05-16T15:23:31;9.00;99.90
46029;DHT22;31763;48.180;7.904;2023-05-16T15:25:58;8.90;99.90
46029;DHT22;31763;48.180;7.904;2023-05-16T15:28:25;8.90;99.90
46029;DHT22;31763;48.180;7.904;2023-05-16T15:30:52;8.90;99.90
46029;DHT22;31763;48.180;7.904;2023-05-16T15:33:19;8.90;99.90
46029;DHT22;31763;48.180;7.904;2023-05-16T15:35:46;8.90;99.90
46029;DHT22;31763;48.180;7.904;2023-05-16T15:38:13;8.90;99.90
46029;DHT22;31763;48.180;7.904;2023-05-16T15:40:40;8.90;99.90
46029;DHT22;31763;48.180;7.904;2023-05-16T15:43:08;8.80;99.90
46029;DHT22;31763;48.180;7.904;2023-05-16T15:45:34;8.80;99.90
46029;DHT22;31763;48.180;7.904;2023-05-16T15:48:05;8.70;99.90
46029;DHT22;31763;48.180;7.904;2023-05-16T15:50:32;8.80;99.90
46029;DHT22;31763;48.180;7.904;2023-05-16T15:52:59;8.80;99.90
46029;DHT22;31763;48.180;7.904;2023-05-16T15:55:26;8.80;99.90
46029;DHT22;31763;48.180;7.904;2023-05-16T15:57:54;8.80;99.90
46029;DHT22;31763;48.180;7.904;2023-05-16T16:00:23;8.80;99.90
46029;DHT22;31763;48.180;7.904;2023-05-16T16:02:50;8.90;99.90
46029;DHT22;31763;48.180;7.904;2023-05-16T16:05:18;9.00;99.90
46029;DHT22;31763;48.180;7.904;2023-05-16T16:07:44;9.10;99.90
46029;DHT22;31763;48.180;7.904;2023-05-16T16:10:11;9.00;99.90
46029;DHT22;31763;48.180;7.904;2023-05-16T16:12:39;9.10;99.90
46029;DHT22;31763;48.180;7.904;2023-05-16T16:15:08;9.10;99.90
46029;DHT22;31763;48.180;7.904;2023-05-16T16:17:36;9.00;99.90
46029;DHT22;31763;48.180;7.904;2023-05-16T16:20:03;9.10;99.90
46029;DHT22;31763;48.180;7.904;2023-05-16T16:22:30;9.10;99.90
46029;DHT22;31763;48.180;7.904;2023-05-16T16:24:57;9.10;99.90
46029;DHT22;31763;48.180;7.904;2023-05-16T16:27:24;9.10;99.90
46029;DHT22;31763;48.180;7.904;2023-05-16T16:29:50;9.20;99.90
46029;DHT22;31763;48.180;7.904;2023-05-16T16:32:17;9.20;99.90
46029;DHT22;31763;48.180;7.904;2023-05-16T16:34:44;9.20;99.90
46029;DHT22;31763;48.180;7.904;2023-05-16T16:37:11;9.30;99.90
46029;DHT22;31763;48.180;7.904;2023-05-16T16:39:38;9.20;99.90
46029;DHT22;31763;48.180;7.904;2023-05-16T16:42:05;9.20;99.90
46029;DHT22;31763;48.180;7.904;2023-05-16T16:44:32;9.30;99.90
46029;DHT22;31763;48.180;7.904;2023-05-16T16:46:59;9.40;99.90
46029;DHT22;31763;48.180;7.904;2023-05-16T16:49:26;9.30;99.90
46029;DHT22;31763;48.180;7.904;2023-05-16T16:51:53;9.30;99.90
46029;DHT22;31763;48.180;7.904;2023-05-16T16:54:20;9.30;99.90
46029;DHT22;31763;48.180;7.904;2023-05-16T16:56:47;9.20;99.90
46029;DHT22;31763;48.180;7.904;2023-05-16T16:59:15;9.10;99.90
46029;DHT22;31763;48.180;7.904;2023-05-16T17:01:42;9.20;99.90
46029;DHT22;31763;48.180;7.904;2023-05-16T17:04:10;9.20;99.90
46029;DHT22;31763;48.180;7.904;2023-05-16T17:06:37;9.10;99.90
46029;DHT22;31763;48.180;7.904;2023-05-16T17:09:04;9.20;99.90
46029;DHT22;31763;48.180;7.904;2023-05-16T17:11:32;9.30;99.90
46029;DHT22;31763;48.180;7.904;2023-05-16T17:14:01;9.30;99.90
46029;DHT22;31763;48.180;7.904;2023-05-16T17:16:31;9.20;99.90
46029;DHT22;31763;48.180;7.904;2023-05-16T17:18:58;9.10;99.90
46029;DHT22;31763;48.180;7.904;2023-05-16T17:21:26;9.20;99.90
46029;DHT22;31763;48.180;7.904;2023-05-16T17:23:53;9.30;99.90
46029;DHT22;31763;48.180;7.904;2023-05-16T17:26:23;9.30;99.90
46029;DHT22;31763;48.180;7.904;2023-05-16T17:28:52;9.20;99.90
46029;DHT22;31763;48.180;7.904;2023-05-16T17:31:19;9.30;99.90
46029;DHT22;31763;48.180;7.904;2023-05-16T17:33:46;9.30;99.90
46029;DHT22;31763;48.180;7.904;2023-05-16T17:36:13;9.30;99.90
46029;DHT22;31763;48.180;7.904;2023-05-16T17:38:41;9.30;99.90
46029;DHT22;31763;48.180;7.904;2023-05-16T17:41:11;9.30;99.90
46029;DHT22;31763;48.180;7.904;2023-05-16T17:43:39;9.30;99.90
46029;DHT22;31763;48.180;7.904;2023-05-16T17:46:11;9.30;99.90
46029;DHT22;31763;48.180;7.904;2023-05-16T17:48:44;9.30;99.90
46029;DHT22;31763;48.180;7.904;2023-05-16T17:51:15;9.40;99.90
46029;DHT22;31763;48.180;7.904;2023-05-16T17:53:42;9.20;99.90
46029;DHT22;31763;48.180;7.904;2023-05-16T17:56:09;9.40;99.90
46029;DHT22;31763;48.180;7.904;2023-05-16T17:58:40;9.30;99.90
46029;DHT22;31763;48.180;7.904;2023-05-16T18:01:11;9.40;99.90
46029;DHT22;31763;48.180;7.904;2023-05-16T18:03:38;9.40;99.90
46029;DHT22;31763;48.180;7.904;2023-05-16T18:06:12;9.40;99.90
46029;DHT22;31763;48.180;7.904;2023-05-16T18:08:41;9.50;99.90
46029;DHT22;31763;48.180;7.904;2023-05-16T18:11:08;9.40;99.90
46029;DHT22;31763;48.180;7.904;2023-05-16T18:13:42;9.30;99.90
46029;DHT22;31763;48.180;7.904;2023-05-16T18:16:15;9.40;99.90
46029;DHT22;31763;48.180;7.904;2023-05-16T18:18:43;9.40;99.90
46029;DHT22;31763;48.180;7.904;2023-05-16T18:21:13;9.40;99.90
46029;DHT22;31763;48.180;7.904;2023-05-16T18:23:49;9.30;99.90
46029;DHT22;31763;48.180;7.904;2023-05-16T18:26:16;9.50;99.90
46029;DHT22;31763;48.180;7.904;2023-05-16T18:28:43;9.50;99.90
46029;DHT22;31763;48.180;7.904;2023-05-16T18:31:11;9.60;99.90
46029;DHT22;31763;48.180;7.904;2023-05-16T18:33:38;9.30;99.90
46029;DHT22;31763;48.180;7.904;2023-05-16T18:36:05;9.40;99.90
46029;DHT22;31763;48.180;7.904;2023-05-16T18:38:32;9.40;99.90
46029;DHT22;31763;48.180;7.904;2023-05-16T18:40:59;9.30;99.90
46029;DHT22;31763;48.180;7.904;2023-05-16T18:43:26;9.40;99.90
46029;DHT22;31763;48.180;7.904;2023-05-16T18:45:53;9.40;99.90
46029;DHT22;31763;48.180;7.904;2023-05-16T18:48:20;9.40;99.90
46029;DHT22;31763;48.180;7.904;2023-05-16T18:50:47;9.30;99.90
46029;DHT22;31763;48.180;7.904;2023-05-16T18:53:14;9.30;99.90
46029;DHT22;31763;48.180;7.904;2023-05-16T18:55:41;9.30;99.90
46029;DHT22;31763;48.180;7.904;2023-05-16T18:58:08;9.30;99.90
46029;DHT22;31763;48.180;7.904;2023-05-16T19:00:35;9.30;99.90
46029;DHT22;31763;48.180;7.904;2023-05-16T19:03:02;9.30;99.90
46029;DHT22;31763;48.180;7.904;2023-05-16T19:05:29;9.20;99.90
46029;DHT22;31763;48.180;7.904;2023-05-16T19:07:56;9.10;99.90
46029;DHT22;31763;48.180;7.904;2023-05-16T19:10:23;9.10;99.90
46029;DHT22;31763;48.180;7.904;2023-05-16T19:12:51;9.10;99.90
46029;DHT22;31763;48.180;7.904;2023-05-16T19:15:18;9.00;99.90
46029;DHT22;31763;48.180;7.904;2023-05-16T19:17:45;8.90;99.90
46029;DHT22;31763;48.180;7.904;2023-05-16T19:20:12;8.80;99.90
46029;DHT22;31763;48.180;7.904;2023-05-16T19:22:39;8.80;99.90
46029;DHT22;31763;48.180;7.904;2023-05-16T19:25:07;8.80;99.90
46029;DHT22;31763;48.180;7.904;2023-05-16T19:27:34;8.80;99.90
46029;DHT22;31763;48.180;7.904;2023-05-16T19:30:01;8.70;99.90
46029;DHT22;31763;48.180;7.904;2023-05-16T19:32:28;8.60;99.90
46029;DHT22;31763;48.180;7.904;2023-05-16T19:34:55;8.60;99.90
46029;DHT22;31763;48.180;7.904;2023-05-16T19:37:23;8.70;99.90
46029;DHT22;31763;48.180;7.904;2023-05-16T19:39:49;8.80;99.90
46029;DHT22;31763;48.180;7.904;2023-05-16T19:42:16;8.70;99.90
46029;DHT22;31763;48.180;7.904;2023-05-16T19:44:43;8.80;99.90
46029;DHT22;31763;48.180;7.904;2023-05-16T19:47:10;8.70;99.90
46029;DHT22;31763;48.180;7.904;2023-05-16T19:49:37;8.60;99.90
46029;DHT22;31763;48.180;7.904;2023-05-16T19:52:04;8.50;99.90
46029;DHT22;31763;48.180;7.904;2023-05-16T19:54:34;8.50;99.90
46029;DHT22;31763;48.180;7.904;2023-05-16T19:57:01;8.40;99.90
46029;DHT22;31763;48.180;7.904;2023-05-16T19:59:28;8.30;99.90
46029;DHT22;31763;48.180;7.904;2023-05-16T20:01:58;8.30;99.90
46029;DHT22;31763;48.180;7.904;2023-05-16T20:04:25;8.30;99.90
46029;DHT22;31763;48.180;7.904;2023-05-16T20:06:52;8.10;99.90
46029;DHT22;31763;48.180;7.904;2023-05-16T20:09:19;8.20;99.90
46029;DHT22;31763;48.180;7.904;2023-05-16T20:11:46;8.20;99.90
46029;DHT22;31763;48.180;7.904;2023-05-16T20:14:13;8.40;99.90
46029;DHT22;31763;48.180;7.904;2023-05-16T20:16:40;8.50;99.90
46029;DHT22;31763;48.180;7.904;2023-05-16T20:19:06;8.30;99.90
46029;DHT22;31763;48.180;7.904;2023-05-16T20:21:34;8.20;99.90
46029;DHT22;31763;48.180;7.904;2023-05-16T20:24:00;8.30;99.90
46029;DHT22;31763;48.180;7.904;2023-05-16T20:26:28;8.10;99.90
46029;DHT22;31763;48.180;7.904;2023-05-16T20:28:54;8.00;99.90
46029;DHT22;31763;48.180;7.904;2023-05-16T20:31:22;8.10;99.90
46029;DHT22;31763;48.180;7.904;2023-05-16T20:33:49;8.00;99.90
46029;DHT22;31763;48.180;7.904;2023-05-16T20:36:16;8.00;99.90
46029;DHT22;31763;48.180;7.904;2023-05-16T20:38:43;8.10;99.90
46029;DHT22;31763;48.180;7.904;2023-05-16T20:41:10;8.10;99.90
46029;DHT22;31763;48.180;7.904;2023-05-16T20:43:36;7.90;99.90
46029;DHT22;31763;48.180;7.904;2023-05-16T20:46:03;7.90;99.90
46029;DHT22;31763;48.180;7.904;2023-05-16T20:48:30;7.70;99.90
46029;DHT22;31763;48.180;7.904;2023-05-16T20:50:57;7.60;99.90
46029;DHT22;31763;48.180;7.904;2023-05-16T20:53:26;7.60;99.90
46029;DHT22;31763;48.180;7.904;2023-05-16T20:55:53;7.40;99.90
46029;DHT22;31763;48.180;7.904;2023-05-16T20:58:20;7.60;99.90
46029;DHT22;31763;48.180;7.904;2023-05-16T21:00:47;7.40;99.90
46029;DHT22;31763;48.180;7.904;2023-05-16T21:03:14;7.50;99.90
46029;DHT22;31763;48.180;7.904;2023-05-16T21:05:41;7.60;99.90
46029;DHT22;31763;48.180;7.904;2023-05-16T21:08:07;7.70;99.90
46029;DHT22;31763;48.180;7.904;2023-05-16T21:10:34;7.70;99.90
46029;DHT22;31763;48.180;7.904;2023-05-16T21:13:01;7.70;99.90
46029;DHT22;31763;48.180;7.904;2023-05-16T21:15:28;7.50;99.90
46029;DHT22;31763;48.180;7.904;2023-05-16T21:17:56;7.60;99.90
46029;DHT22;31763;48.180;7.904;2023-05-16T21:20:23;7.40;99.90
46029;DHT22;31763;48.180;7.904;2023-05-16T21:22:49;7.60;99.90
46029;DHT22;31763;48.180;7.904;2023-05-16T21:25:16;7.60;99.90
46029;DHT22;31763;48.180;7.904;2023-05-16T21:27:46;7.60;99.90
46029;DHT22;31763;48.180;7.904;2023-05-16T21:30:13;7.40;99.90
46029;DHT22;31763;48.180;7.904;2023-05-16T21:32:40;7.20;99.90
46029;DHT22;31763;48.180;7.904;2023-05-16T21:35:07;7.30;99.90
46029;DHT22;31763;48.180;7.904;2023-05-16T21:37:34;7.30;99.90
46029;DHT22;31763;48.180;7.904;2023-05-16T21:40:01;7.40;99.90
46029;DHT22;31763;48.180;7.904;2023-05-16T21:42:29;7.30;99.90
46029;DHT22;31763;48.180;7.904;2023-05-16T21:44:55;7.10;99.90
46029;DHT22;31763;48.180;7.904;2023-05-16T21:47:22;7.50;99.90
46029;DHT22;31763;48.180;7.904;2023-05-16T21:49:50;7.10;99.90
46029;DHT22;31763;48.180;7.904;2023-05-16T21:52:16;7.10;99.90
46029;DHT22;31763;48.180;7.904;2023-05-16T21:54:43;7.10;99.90
46029;DHT22;31763;48.180;7.904;2023-05-16T21:57:17;7.00;99.90
46029;DHT22;31763;48.180;7.904;2023-05-16T21:59:44;7.00;99.90
46029;DHT22;31763;48.180;7.904;2023-05-16T22:02:11;7.00;99.90
46029;DHT22;31763;48.180;7.904;2023-05-16T22:04:38;7.00;99.90
46029;DHT22;31763;48.180;7.904;2023-05-16T22:07:05;7.00;99.90
46029;DHT22;31763;48.180;7.904;2023-05-16T22:09:32;7.00;99.90
46029;DHT22;31763;48.180;7.904;2023-05-16T22:11:59;7.00;99.90
46029;DHT22;31763;48.180;7.904;2023-05-16T22:14:26;7.10;99.90
46029;DHT22;31763;48.180;7.904;2023-05-16T22:16:53;7.20;99.90
46029;DHT22;31763;48.180;7.904;2023-05-16T22:19:20;7.30;99.90
46029;DHT22;31763;48.180;7.904;2023-05-16T22:21:47;7.40;99.90
46029;DHT22;31763;48.180;7.904;2023-05-16T22:24:13;7.30;99.90
46029;DHT22;31763;48.180;7.904;2023-05-16T22:26:40;7.20;99.90
46029;DHT22;31763;48.180;7.904;2023-05-16T22:29:07;7.30;99.90
46029;DHT22;31763;48.180;7.904;2023-05-16T22:31:34;7.20;99.90
46029;DHT22;31763;48.180;7.904;2023-05-16T22:34:01;7.20;99.90
46029;DHT22;31763;48.180;7.904;2023-05-16T22:36:28;7.30;99.90
46029;DHT22;31763;48.180;7.904;2023-05-16T22:38:56;7.10;99.90
46029;DHT22;31763;48.180;7.904;2023-05-16T22:41:23;7.30;99.90
46029;DHT22;31763;48.180;7.904;2023-05-16T22:43:50;7.00;99.90
46029;DHT22;31763;48.180;7.904;2023-05-16T22:46:17;6.80;99.90
46029;DHT22;31763;48.180;7.904;2023-05-16T22:48:44;6.80;99.90
46029;DHT22;31763;48.180;7.904;2023-05-16T22:51:11;6.70;99.90
46029;DHT22;31763;48.180;7.904;2023-05-16T22:53:38;6.90;99.90
46029;DHT22;31763;48.180;7.904;2023-05-16T22:56:06;6.90;99.90
46029;DHT22;31763;48.180;7.904;2023-05-16T22:58:34;6.90;99.90
46029;DHT22;31763;48.180;7.904;2023-05-16T23:01:01;7.00;99.90
46029;DHT22;31763;48.180;7.904;2023-05-16T23:03:28;7.00;99.90
46029;DHT22;31763;48.180;7.904;2023-05-16T23:05:55;7.00;99.90
46029;DHT22;31763;48.180;7.904;2023-05-16T23:08:22;7.00;99.90
46029;DHT22;31763;48.180;7.904;2023-05-16T23:10:49;7.00;99.90
46029;DHT22;31763;48.180;7.904;2023-05-16T23:13:16;6.90;99.90
46029;DHT22;31763;48.180;7.904;2023-05-16T23:15:43;7.00;99.90
46029;DHT22;31763;48.180;7.904;2023-05-16T23:18:10;7.00;99.90
46029;DHT22;31763;48.180;7.904;2023-05-16T23:20:37;7.10;99.90
46029;DHT22;31763;48.180;7.904;2023-05-16T23:23:04;6.90;99.90
46029;DHT22;31763;48.180;7.904;2023-05-16T23:25:30;6.80;99.90
46029;DHT22;31763;48.180;7.904;2023-05-16T23:27:57;6.80;99.90
46029;DHT22;31763;48.180;7.904;2023-05-16T23:30:24;6.90;99.90
46029;DHT22;31763;48.180;7.904;2023-05-16T23:32:51;6.90;99.90
46029;DHT22;31763;48.180;7.904;2023-05-16T23:35:18;6.80;99.90
46029;DHT22;31763;48.180;7.904;2023-05-16T23:37:45;6.90;99.90
46029;DHT22;31763;48.180;7.904;2023-05-16T23:40:12;6.90;99.90
46029;DHT22;31763;48.180;7.904;2023-05-16T23:42:39;6.70;99.90
46029;DHT22;31763;48.180;7.904;2023-05-16T23:45:07;6.70;99.90
46029;DHT22;31763;48.180;7.904;2023-05-16T23:47:34;6.80;99.90
46029;DHT22;31763;48.180;7.904;2023-05-16T23:50:01;6.80;99.90
46029;DHT22;31763;48.180;7.904;2023-05-16T23:52:29;6.80;99.90
46029;DHT22;31763;48.180;7.904;2023-05-16T23:54:56;6.80;99.90
46029;DHT22;31763;48.180;7.904;2023-05-16T23:57:23;6.80;99.90
46029;DHT22;31763;48.180;7.904;2023-05-16T23:59:49;6.80;99.90
